sensor_id;sensor_type;location;lat;lon;timestamp;pressure;altitude;pressure_sealevel;temperature;humidity
27984;BME280;15317;50.360;8.726;2023-04-28T00:04:42;99343.56;;;10.06;80.92
27984;BME280;15317;50.360;8.726;2023-04-28T00:09:47;99333.25;;;10.10;79.84
27984;BME280;15317;50.360;8.726;2023-04-28T00:14:52;99320.47;;;10.02;80.17
27984;BME280;15317;50.360;8.726;2023-04-28T00:19:55;99308.94;;;10.00;80.33
27984;BME280;15317;50.360;8.726;2023-04-28T00:24:59;99296.22;;;10.01;80.58
27984;BME280;15317;50.360;8.726;2023-04-28T00:30:04;99285.09;;;9.86;84.30
27984;BME280;15317;50.360;8.726;2023-04-28T00:35:08;99289.94;;;9.74;88.52
27984;BME280;15317;50.360;8.726;2023-04-28T00:40:12;99280.59;;;9.69;88.38
27984;BME280;15317;50.360;8.726;2023-04-28T00:45:17;99279.69;;;9.60;88.40
27984;BME280;15317;50.360;8.726;2023-04-28T00:50:21;99282.91;;;9.64;85.26
27984;BME280;15317;50.360;8.726;2023-04-28T00:55:25;99271.75;;;9.67;86.73
27984;BME280;15317;50.360;8.726;2023-04-28T01:00:32;99261.75;;;9.67;83.82
27984;BME280;15317;50.360;8.726;2023-04-28T01:05:36;99247.50;;;9.65;86.35
27984;BME280;15317;50.360;8.726;2023-04-28T01:10:42;99246.50;;;9.66;90.17
27984;BME280;15317;50.360;8.726;2023-04-28T01:15:47;99240.38;;;9.64;89.47
27984;BME280;15317;50.360;8.726;2023-04-28T01:20:50;99232.94;;;9.66;90.06
27984;BME280;15317;50.360;8.726;2023-04-28T01:25:55;99227.16;;;9.61;92.11
27984;BME280;15317;50.360;8.726;2023-04-28T01:30:59;99229.47;;;9.56;92.86
27984;BME280;15317;50.360;8.726;2023-04-28T01:36:02;99227.09;;;9.53;94.84
27984;BME280;15317;50.360;8.726;2023-04-28T01:41:06;99219.97;;;9.52;96.54
27984;BME280;15317;50.360;8.726;2023-04-28T01:46:09;99216.72;;;9.48;97.97
27984;BME280;15317;50.360;8.726;2023-04-28T01:51:12;99216.56;;;9.50;95.19
27984;BME280;15317;50.360;8.726;2023-04-28T01:56:17;99206.69;;;9.41;100.00
27984;BME280;15317;50.360;8.726;2023-04-28T02:01:20;99198.72;;;9.39;100.00
27984;BME280;15317;50.360;8.726;2023-04-28T02:06:24;99200.50;;;9.31;100.00
27984;BME280;15317;50.360;8.726;2023-04-28T02:11:30;99202.53;;;9.29;100.00
27984;BME280;15317;50.360;8.726;2023-04-28T02:16:33;99198.59;;;9.23;100.00
27984;BME280;15317;50.360;8.726;2023-04-28T02:21:37;99198.94;;;9.20;100.00
27984;BME280;15317;50.360;8.726;2023-04-28T02:26:41;99199.38;;;9.16;100.00
27984;BME280;15317;50.360;8.726;2023-04-28T02:31:44;99204.50;;;9.19;100.00
27984;BME280;15317;50.360;8.726;2023-04-28T02:36:48;99194.97;;;9.15;100.00
27984;BME280;15317;50.360;8.726;2023-04-28T02:41:52;99183.59;;;9.11;100.00
27984;BME280;15317;50.360;8.726;2023-04-28T02:46:56;99183.25;;;9.06;100.00
27984;BME280;15317;50.360;8.726;2023-04-28T02:51:59;99190.06;;;8.92;100.00
27984;BME280;15317;50.360;8.726;2023-04-28T02:57:04;99186.03;;;8.96;100.00
27984;BME280;15317;50.360;8.726;2023-04-28T03:02:07;99180.59;;;8.96;100.00
27984;BME280;15317;50.360;8.726;2023-04-28T03:07:10;99174.50;;;8.94;100.00
27984;BME280;15317;50.360;8.726;2023-04-28T03:12:15;99164.34;;;8.96;100.00
27984;BME280;15317;50.360;8.726;2023-04-28T03:17:18;99168.28;;;9.02;100.00
27984;BME280;15317;50.360;8.726;2023-04-28T03:22:22;99161.16;;;9.01;100.00
27984;BME280;15317;50.360;8.726;2023-04-28T03:27:26;99153.53;;;8.96;100.00
27984;BME280;15317;50.360;8.726;2023-04-28T03:32:30;99147.94;;;8.98;100.00
27984;BME280;15317;50.360;8.726;2023-04-28T03:37:33;99144.03;;;8.92;100.00
27984;BME280;15317;50.360;8.726;2023-04-28T03:42:38;99129.06;;;8.88;100.00
27984;BME280;15317;50.360;8.726;2023-04-28T03:47:41;99122.34;;;8.92;100.00
27984;BME280;15317;50.360;8.726;2023-04-28T03:52:45;99149.09;;;8.95;100.00
27984;BME280;15317;50.360;8.726;2023-04-28T03:57:50;99148.66;;;9.00;100.00
27984;BME280;15317;50.360;8.726;2023-04-28T04:02:53;99141.41;;;9.08;100.00
27984;BME280;15317;50.360;8.726;2023-04-28T04:07:57;99141.41;;;9.08;100.00
27984;BME280;15317;50.360;8.726;2023-04-28T04:13:01;99133.78;;;9.04;100.00
27984;BME280;15317;50.360;8.726;2023-04-28T04:18:04;99121.94;;;9.05;100.00
27984;BME280;15317;50.360;8.726;2023-04-28T04:23:07;99119.38;;;9.03;100.00
27984;BME280;15317;50.360;8.726;2023-04-28T04:28:12;99114.75;;;8.96;100.00
27984;BME280;15317;50.360;8.726;2023-04-28T04:33:15;99115.59;;;8.96;100.00
27984;BME280;15317;50.360;8.726;2023-04-28T04:38:18;99125.38;;;8.89;100.00
27984;BME280;15317;50.360;8.726;2023-04-28T04:43:22;99140.53;;;8.82;100.00
27984;BME280;15317;50.360;8.726;2023-04-28T04:48:25;99136.84;;;8.83;100.00
27984;BME280;15317;50.360;8.726;2023-04-28T04:53:28;99141.31;;;8.75;100.00
27984;BME280;15317;50.360;8.726;2023-04-28T04:58:33;99141.56;;;8.81;100.00
27984;BME280;15317;50.360;8.726;2023-04-28T05:03:36;99154.78;;;8.84;100.00
27984;BME280;15317;50.360;8.726;2023-04-28T05:08:39;99142.59;;;8.80;100.00
27984;BME280;15317;50.360;8.726;2023-04-28T05:13:44;99129.19;;;8.79;100.00
27984;BME280;15317;50.360;8.726;2023-04-28T05:18:47;99122.94;;;8.78;100.00
27984;BME280;15317;50.360;8.726;2023-04-28T05:23:50;99128.72;;;8.83;100.00
27984;BME280;15317;50.360;8.726;2023-04-28T05:28:56;99122.94;;;8.78;100.00
27984;BME280;15317;50.360;8.726;2023-04-28T05:33:59;99127.63;;;8.76;100.00
27984;BME280;15317;50.360;8.726;2023-04-28T05:39:02;99139.06;;;8.88;100.00
27984;BME280;15317;50.360;8.726;2023-04-28T05:44:07;99139.97;;;8.96;100.00
27984;BME280;15317;50.360;8.726;2023-04-28T05:49:10;99144.41;;;8.97;100.00
27984;BME280;15317;50.360;8.726;2023-04-28T05:54:13;99149.66;;;8.99;100.00
27984;BME280;15317;50.360;8.726;2023-04-28T05:59:18;99155.28;;;9.05;100.00
27984;BME280;15317;50.360;8.726;2023-04-28T06:04:21;99149.53;;;9.08;100.00
27984;BME280;15317;50.360;8.726;2023-04-28T06:09:26;99144.47;;;9.05;100.00
27984;BME280;15317;50.360;8.726;2023-04-28T06:14:32;99153.44;;;8.88;100.00
27984;BME280;15317;50.360;8.726;2023-04-28T06:19:37;99157.63;;;9.00;100.00
27984;BME280;15317;50.360;8.726;2023-04-28T06:24:40;99160.00;;;9.03;100.00
27984;BME280;15317;50.360;8.726;2023-04-28T06:29:45;99154.47;;;8.87;100.00
27984;BME280;15317;50.360;8.726;2023-04-28T06:34:48;99173.66;;;8.76;100.00
27984;BME280;15317;50.360;8.726;2023-04-28T06:39:51;99167.00;;;8.88;100.00
27984;BME280;15317;50.360;8.726;2023-04-28T06:44:55;99168.59;;;8.73;100.00
27984;BME280;15317;50.360;8.726;2023-04-28T06:49:58;99146.22;;;8.71;100.00
27984;BME280;15317;50.360;8.726;2023-04-28T06:55:02;99150.72;;;8.80;100.00
27984;BME280;15317;50.360;8.726;2023-04-28T07:00:08;99163.91;;;8.83;100.00
27984;BME280;15317;50.360;8.726;2023-04-28T07:05:11;99145.66;;;8.85;100.00
27984;BME280;15317;50.360;8.726;2023-04-28T07:10:17;99146.41;;;8.95;100.00
27984;BME280;15317;50.360;8.726;2023-04-28T07:15:21;99126.56;;;8.87;100.00
27984;BME280;15317;50.360;8.726;2023-04-28T07:20:25;99143.75;;;9.03;100.00
27984;BME280;15317;50.360;8.726;2023-04-28T07:25:28;99139.34;;;9.02;100.00
27984;BME280;15317;50.360;8.726;2023-04-28T07:30:33;99125.56;;;9.14;100.00
27984;BME280;15317;50.360;8.726;2023-04-28T07:35:37;99105.34;;;9.34;100.00
27984;BME280;15317;50.360;8.726;2023-04-28T07:40:41;99095.19;;;9.36;100.00
27984;BME280;15317;50.360;8.726;2023-04-28T07:45:45;99075.53;;;9.34;100.00
27984;BME280;15317;50.360;8.726;2023-04-28T07:50:50;99091.75;;;9.26;100.00
27984;BME280;15317;50.360;8.726;2023-04-28T07:55:53;99108.47;;;9.47;100.00
27984;BME280;15317;50.360;8.726;2023-04-28T08:00:58;99112.69;;;9.49;100.00
27984;BME280;15317;50.360;8.726;2023-04-28T08:06:01;99121.91;;;9.65;100.00
27984;BME280;15317;50.360;8.726;2023-04-28T08:11:04;99124.94;;;9.54;100.00
27984;BME280;15317;50.360;8.726;2023-04-28T08:16:10;99131.06;;;9.64;100.00
27984;BME280;15317;50.360;8.726;2023-04-28T08:21:13;99130.41;;;9.70;100.00
27984;BME280;15317;50.360;8.726;2023-04-28T08:26:16;99145.81;;;9.69;100.00
27984;BME280;15317;50.360;8.726;2023-04-28T08:31:20;99141.78;;;9.73;100.00
27984;BME280;15317;50.360;8.726;2023-04-28T08:36:24;99141.91;;;9.64;100.00
27984;BME280;15317;50.360;8.726;2023-04-28T08:41:32;99139.69;;;9.59;100.00
27984;BME280;15317;50.360;8.726;2023-04-28T08:46:43;99144.78;;;9.62;100.00
27984;BME280;15317;50.360;8.726;2023-04-28T08:51:49;99149.44;;;9.78;100.00
27984;BME280;15317;50.360;8.726;2023-04-28T08:56:54;99145.91;;;9.85;100.00
27984;BME280;15317;50.360;8.726;2023-04-28T09:02:00;99134.94;;;10.03;100.00
27984;BME280;15317;50.360;8.726;2023-04-28T09:07:03;99141.03;;;9.97;100.00
27984;BME280;15317;50.360;8.726;2023-04-28T09:12:06;99148.19;;;10.06;100.00
27984;BME280;15317;50.360;8.726;2023-04-28T09:17:12;99150.75;;;10.08;100.00
27984;BME280;15317;50.360;8.726;2023-04-28T09:22:17;99148.72;;;10.10;100.00
27984;BME280;15317;50.360;8.726;2023-04-28T09:27:29;99149.59;;;10.18;100.00
27984;BME280;15317;50.360;8.726;2023-04-28T09:32:33;99138.59;;;10.20;100.00
27984;BME280;15317;50.360;8.726;2023-04-28T09:37:37;99136.06;;;10.26;100.00
27984;BME280;15317;50.360;8.726;2023-04-28T09:42:41;99131.31;;;10.28;100.00
27984;BME280;15317;50.360;8.726;2023-04-28T09:47:46;99142.72;;;10.56;100.00
27984;BME280;15317;50.360;8.726;2023-04-28T09:52:55;99134.59;;;10.56;100.00
27984;BME280;15317;50.360;8.726;2023-04-28T09:58:01;99144.09;;;10.85;100.00
27984;BME280;15317;50.360;8.726;2023-04-28T10:03:10;99134.91;;;11.02;100.00
27984;BME280;15317;50.360;8.726;2023-04-28T10:08:13;99136.56;;;11.35;100.00
27984;BME280;15317;50.360;8.726;2023-04-28T10:13:17;99133.94;;;11.66;100.00
27984;BME280;15317;50.360;8.726;2023-04-28T10:18:22;99129.28;;;11.83;100.00
27984;BME280;15317;50.360;8.726;2023-04-28T10:23:43;99106.16;;;11.87;100.00
27984;BME280;15317;50.360;8.726;2023-04-28T10:28:50;99096.91;;;11.96;100.00
27984;BME280;15317;50.360;8.726;2023-04-28T10:33:54;99109.69;;;12.26;100.00
27984;BME280;15317;50.360;8.726;2023-04-28T10:39:09;99088.97;;;12.17;100.00
27984;BME280;15317;50.360;8.726;2023-04-28T10:44:40;99090.81;;;12.48;100.00
27984;BME280;15317;50.360;8.726;2023-04-28T10:50:07;99075.88;;;12.81;100.00
27984;BME280;15317;50.360;8.726;2023-04-28T10:55:30;99071.16;;;13.13;100.00
27984;BME280;15317;50.360;8.726;2023-04-28T11:00:38;99057.84;;;13.47;100.00
27984;BME280;15317;50.360;8.726;2023-04-28T11:06:17;99064.59;;;13.51;100.00
27984;BME280;15317;50.360;8.726;2023-04-28T11:11:22;99068.06;;;13.74;100.00
27984;BME280;15317;50.360;8.726;2023-04-28T11:16:26;99072.22;;;13.56;100.00
27984;BME280;15317;50.360;8.726;2023-04-28T11:21:31;99075.97;;;13.25;100.00
27984;BME280;15317;50.360;8.726;2023-04-28T11:26:36;99066.19;;;13.31;100.00
27984;BME280;15317;50.360;8.726;2023-04-28T11:31:40;99066.78;;;13.41;100.00
27984;BME280;15317;50.360;8.726;2023-04-28T11:36:52;99072.50;;;13.31;100.00
27984;BME280;15317;50.360;8.726;2023-04-28T11:41:56;99074.00;;;13.34;100.00
27984;BME280;15317;50.360;8.726;2023-04-28T11:47:01;99061.78;;;13.44;100.00
27984;BME280;15317;50.360;8.726;2023-04-28T11:52:08;99061.50;;;13.54;100.00
27984;BME280;15317;50.360;8.726;2023-04-28T11:57:18;99059.94;;;13.96;100.00
27984;BME280;15317;50.360;8.726;2023-04-28T12:02:25;99047.00;;;14.40;100.00
27984;BME280;15317;50.360;8.726;2023-04-28T12:07:40;99031.50;;;14.96;100.00
27984;BME280;15317;50.360;8.726;2023-04-28T12:12:45;99044.53;;;16.04;100.00
27984;BME280;15317;50.360;8.726;2023-04-28T12:17:54;99029.31;;;16.95;100.00
27984;BME280;15317;50.360;8.726;2023-04-28T12:22:58;99031.00;;;17.03;94.83
27984;BME280;15317;50.360;8.726;2023-04-28T12:28:03;99024.63;;;17.29;95.41
27984;BME280;15317;50.360;8.726;2023-04-28T12:33:21;99029.75;;;17.12;92.61
27984;BME280;15317;50.360;8.726;2023-04-28T12:38:25;99035.00;;;17.01;99.57
27984;BME280;15317;50.360;8.726;2023-04-28T12:43:29;99030.81;;;16.78;97.11
27984;BME280;15317;50.360;8.726;2023-04-28T12:48:32;99031.66;;;16.98;100.00
27984;BME280;15317;50.360;8.726;2023-04-28T12:53:37;99025.53;;;16.96;99.71
27984;BME280;15317;50.360;8.726;2023-04-28T12:58:40;99027.00;;;17.19;99.03
27984;BME280;15317;50.360;8.726;2023-04-28T13:03:43;99025.94;;;16.80;95.81
27984;BME280;15317;50.360;8.726;2023-04-28T13:08:50;99017.47;;;17.15;100.00
27984;BME280;15317;50.360;8.726;2023-04-28T13:13:53;99025.44;;;17.43;95.93
27984;BME280;15317;50.360;8.726;2023-04-28T13:18:57;99039.88;;;17.12;93.40
27984;BME280;15317;50.360;8.726;2023-04-28T13:24:02;99013.84;;;17.34;98.86
27984;BME280;15317;50.360;8.726;2023-04-28T13:29:05;98998.91;;;17.17;97.11
27984;BME280;15317;50.360;8.726;2023-04-28T13:34:10;98999.56;;;17.06;100.00
27984;BME280;15317;50.360;8.726;2023-04-28T13:39:18;98991.75;;;17.03;97.16
27984;BME280;15317;50.360;8.726;2023-04-28T13:44:22;98986.28;;;16.83;100.00
27984;BME280;15317;50.360;8.726;2023-04-28T13:49:25;98967.72;;;16.91;100.00
27984;BME280;15317;50.360;8.726;2023-04-28T13:54:30;98964.03;;;17.37;100.00
27984;BME280;15317;50.360;8.726;2023-04-28T13:59:33;98956.31;;;16.94;99.65
27984;BME280;15317;50.360;8.726;2023-04-28T14:04:36;98951.72;;;16.62;100.00
27984;BME280;15317;50.360;8.726;2023-04-28T14:09:41;98965.38;;;16.36;100.00
27984;BME280;15317;50.360;8.726;2023-04-28T14:14:45;98963.69;;;16.22;100.00
27984;BME280;15317;50.360;8.726;2023-04-28T14:19:50;98954.97;;;15.98;100.00
27984;BME280;15317;50.360;8.726;2023-04-28T14:24:54;98955.75;;;15.72;100.00
27984;BME280;15317;50.360;8.726;2023-04-28T14:29:57;98967.28;;;15.55;100.00
27984;BME280;15317;50.360;8.726;2023-04-28T14:35:01;98987.41;;;15.40;100.00
27984;BME280;15317;50.360;8.726;2023-04-28T14:40:08;98979.00;;;15.08;100.00
27984;BME280;15317;50.360;8.726;2023-04-28T14:45:12;98964.94;;;14.83;100.00
27984;BME280;15317;50.360;8.726;2023-04-28T14:50:15;98972.88;;;14.71;100.00
27984;BME280;15317;50.360;8.726;2023-04-28T14:55:21;98990.25;;;14.91;100.00
27984;BME280;15317;50.360;8.726;2023-04-28T15:00:24;98998.09;;;15.35;100.00
27984;BME280;15317;50.360;8.726;2023-04-28T15:05:27;98979.81;;;15.90;100.00
27984;BME280;15317;50.360;8.726;2023-04-28T15:10:37;98973.94;;;15.93;100.00
27984;BME280;15317;50.360;8.726;2023-04-28T15:15:41;98977.53;;;16.00;100.00
27984;BME280;15317;50.360;8.726;2023-04-28T15:20:44;98973.53;;;15.96;100.00
27984;BME280;15317;50.360;8.726;2023-04-28T15:25:48;98963.78;;;15.74;100.00
27984;BME280;15317;50.360;8.726;2023-04-28T15:30:54;98963.31;;;15.64;100.00
27984;BME280;15317;50.360;8.726;2023-04-28T15:35:57;98953.78;;;16.27;100.00
27984;BME280;15317;50.360;8.726;2023-04-28T15:41:02;98970.25;;;16.60;100.00
27984;BME280;15317;50.360;8.726;2023-04-28T15:46:06;98950.81;;;16.29;100.00
27984;BME280;15317;50.360;8.726;2023-04-28T15:51:10;98953.72;;;15.94;100.00
27984;BME280;15317;50.360;8.726;2023-04-28T15:56:15;98962.06;;;15.66;100.00
27984;BME280;15317;50.360;8.726;2023-04-28T16:01:20;98951.56;;;15.76;100.00
27984;BME280;15317;50.360;8.726;2023-04-28T16:06:24;98957.88;;;15.84;100.00
27984;BME280;15317;50.360;8.726;2023-04-28T16:11:28;98964.34;;;15.63;100.00
27984;BME280;15317;50.360;8.726;2023-04-28T16:16:31;98967.81;;;15.43;100.00
27984;BME280;15317;50.360;8.726;2023-04-28T16:21:35;98958.47;;;15.25;100.00
27984;BME280;15317;50.360;8.726;2023-04-28T16:26:39;98947.50;;;15.18;100.00
27984;BME280;15317;50.360;8.726;2023-04-28T16:31:43;98946.69;;;15.24;100.00
27984;BME280;15317;50.360;8.726;2023-04-28T16:36:46;98931.16;;;15.31;100.00
27984;BME280;15317;50.360;8.726;2023-04-28T16:41:51;98922.84;;;15.53;100.00
27984;BME280;15317;50.360;8.726;2023-04-28T16:46:54;98916.19;;;15.75;100.00
27984;BME280;15317;50.360;8.726;2023-04-28T16:51:59;98928.84;;;15.89;100.00
27984;BME280;15317;50.360;8.726;2023-04-28T16:57:04;98950.34;;;15.92;100.00
27984;BME280;15317;50.360;8.726;2023-04-28T17:02:07;98934.38;;;16.02;100.00
27984;BME280;15317;50.360;8.726;2023-04-28T17:07:10;98928.91;;;16.22;100.00
27984;BME280;15317;50.360;8.726;2023-04-28T17:12:15;98925.72;;;16.25;100.00
27984;BME280;15317;50.360;8.726;2023-04-28T17:17:18;98909.28;;;16.12;100.00
27984;BME280;15317;50.360;8.726;2023-04-28T17:22:21;98908.84;;;15.82;100.00
27984;BME280;15317;50.360;8.726;2023-04-28T17:27:26;98922.88;;;15.66;100.00
27984;BME280;15317;50.360;8.726;2023-04-28T17:32:29;98926.78;;;15.43;100.00
27984;BME280;15317;50.360;8.726;2023-04-28T17:37:34;98935.41;;;15.40;100.00
27984;BME280;15317;50.360;8.726;2023-04-28T17:42:39;98927.59;;;15.37;100.00
27984;BME280;15317;50.360;8.726;2023-04-28T17:47:42;98924.81;;;15.24;100.00
27984;BME280;15317;50.360;8.726;2023-04-28T17:52:45;98942.19;;;15.10;100.00
27984;BME280;15317;50.360;8.726;2023-04-28T17:57:50;98941.31;;;15.03;100.00
27984;BME280;15317;50.360;8.726;2023-04-28T18:02:53;98950.31;;;14.97;100.00
27984;BME280;15317;50.360;8.726;2023-04-28T18:07:59;98960.38;;;14.90;100.00
27984;BME280;15317;50.360;8.726;2023-04-28T18:13:05;98987.00;;;14.81;100.00
27984;BME280;15317;50.360;8.726;2023-04-28T18:18:09;98987.28;;;14.58;100.00
27984;BME280;15317;50.360;8.726;2023-04-28T18:23:12;98992.06;;;14.35;100.00
27984;BME280;15317;50.360;8.726;2023-04-28T18:28:17;98991.56;;;14.04;100.00
27984;BME280;15317;50.360;8.726;2023-04-28T18:33:20;99017.41;;;13.87;100.00
27984;BME280;15317;50.360;8.726;2023-04-28T18:38:26;99015.00;;;13.62;100.00
27984;BME280;15317;50.360;8.726;2023-04-28T18:43:33;99018.97;;;13.45;100.00
27984;BME280;15317;50.360;8.726;2023-04-28T18:48:37;99026.53;;;13.14;100.00
27984;BME280;15317;50.360;8.726;2023-04-28T18:53:41;99022.91;;;12.98;100.00
27984;BME280;15317;50.360;8.726;2023-04-28T18:58:46;99037.34;;;12.84;100.00
27984;BME280;15317;50.360;8.726;2023-04-28T19:03:49;99035.75;;;12.75;100.00
27984;BME280;15317;50.360;8.726;2023-04-28T19:08:55;99042.13;;;12.68;100.00
27984;BME280;15317;50.360;8.726;2023-04-28T19:14:00;99049.69;;;12.57;100.00
27984;BME280;15317;50.360;8.726;2023-04-28T19:19:04;99056.78;;;12.44;100.00
27984;BME280;15317;50.360;8.726;2023-04-28T19:24:10;99065.97;;;12.43;100.00
27984;BME280;15317;50.360;8.726;2023-04-28T19:29:15;99070.44;;;12.36;100.00
27984;BME280;15317;50.360;8.726;2023-04-28T19:34:18;99089.09;;;12.24;100.00
27984;BME280;15317;50.360;8.726;2023-04-28T19:39:21;99099.69;;;12.19;100.00
27984;BME280;15317;50.360;8.726;2023-04-28T19:44:26;99104.28;;;12.18;100.00
27984;BME280;15317;50.360;8.726;2023-04-28T19:49:30;99125.38;;;12.16;100.00
27984;BME280;15317;50.360;8.726;2023-04-28T19:54:34;99145.63;;;12.45;100.00
27984;BME280;15317;50.360;8.726;2023-04-28T19:59:39;99148.56;;;12.66;100.00
27984;BME280;15317;50.360;8.726;2023-04-28T20:04:42;99164.78;;;12.82;100.00
27984;BME280;15317;50.360;8.726;2023-04-28T20:09:45;99160.66;;;12.86;100.00
27984;BME280;15317;50.360;8.726;2023-04-28T20:14:50;99164.47;;;12.77;100.00
27984;BME280;15317;50.360;8.726;2023-04-28T20:19:54;99172.53;;;12.71;100.00
27984;BME280;15317;50.360;8.726;2023-04-28T20:24:57;99164.34;;;12.48;100.00
27984;BME280;15317;50.360;8.726;2023-04-28T20:30:03;99164.41;;;12.40;100.00
27984;BME280;15317;50.360;8.726;2023-04-28T20:35:07;99161.38;;;12.35;100.00
27984;BME280;15317;50.360;8.726;2023-04-28T20:40:11;99135.13;;;12.42;100.00
27984;BME280;15317;50.360;8.726;2023-04-28T20:45:18;99109.56;;;12.43;100.00
27984;BME280;15317;50.360;8.726;2023-04-28T20:50:21;99110.28;;;12.37;100.00
27984;BME280;15317;50.360;8.726;2023-04-28T20:55:24;99111.56;;;12.26;100.00
27984;BME280;15317;50.360;8.726;2023-04-28T21:00:30;99110.69;;;12.25;100.00
27984;BME280;15317;50.360;8.726;2023-04-28T21:05:34;99100.38;;;12.21;100.00
27984;BME280;15317;50.360;8.726;2023-04-28T21:10:37;99093.94;;;12.14;100.00
27984;BME280;15317;50.360;8.726;2023-04-28T21:15:42;99105.78;;;11.90;100.00
27984;BME280;15317;50.360;8.726;2023-04-28T21:20:45;99102.81;;;11.61;100.00
27984;BME280;15317;50.360;8.726;2023-04-28T21:25:48;99097.13;;;11.39;100.00
27984;BME280;15317;50.360;8.726;2023-04-28T21:30:53;99103.31;;;11.17;100.00
27984;BME280;15317;50.360;8.726;2023-04-28T21:35:56;99103.69;;;10.90;100.00
27984;BME280;15317;50.360;8.726;2023-04-28T21:40:59;99109.47;;;10.71;100.00
27984;BME280;15317;50.360;8.726;2023-04-28T21:46:04;99101.81;;;10.50;100.00
27984;BME280;15317;50.360;8.726;2023-04-28T21:51:07;99108.41;;;10.31;100.00
27984;BME280;15317;50.360;8.726;2023-04-28T21:56:10;99103.59;;;10.09;100.00
27984;BME280;15317;50.360;8.726;2023-04-28T22:01:15;99104.91;;;9.97;100.00
27984;BME280;15317;50.360;8.726;2023-04-28T22:06:19;99111.88;;;9.99;100.00
27984;BME280;15317;50.360;8.726;2023-04-28T22:11:22;99116.88;;;10.20;100.00
27984;BME280;15317;50.360;8.726;2023-04-28T22:16:27;99121.31;;;10.29;100.00
27984;BME280;15317;50.360;8.726;2023-04-28T22:21:30;99120.63;;;10.35;100.00
27984;BME280;15317;50.360;8.726;2023-04-28T22:26:33;99128.63;;;10.45;100.00
27984;BME280;15317;50.360;8.726;2023-04-28T22:31:38;99131.84;;;10.48;100.00
27984;BME280;15317;50.360;8.726;2023-04-28T22:36:41;99128.81;;;10.43;100.00
27984;BME280;15317;50.360;8.726;2023-04-28T22:41:45;99126.75;;;10.37;100.00
27984;BME280;15317;50.360;8.726;2023-04-28T22:46:50;99127.19;;;10.16;100.00
27984;BME280;15317;50.360;8.726;2023-04-28T22:51:53;99124.75;;;9.89;100.00
27984;BME280;15317;50.360;8.726;2023-04-28T22:56:56;99129.25;;;9.72;100.00
27984;BME280;15317;50.360;8.726;2023-04-28T23:02:01;99134.91;;;9.53;100.00
27984;BME280;15317;50.360;8.726;2023-04-28T23:07:04;99136.00;;;9.34;100.00
27984;BME280;15317;50.360;8.726;2023-04-28T23:12:08;99134.09;;;9.27;100.00
27984;BME280;15317;50.360;8.726;2023-04-28T23:17:12;99142.47;;;9.16;100.00
27984;BME280;15317;50.360;8.726;2023-04-28T23:22:15;99154.16;;;9.16;100.00
27984;BME280;15317;50.360;8.726;2023-04-28T23:27:18;99144.13;;;9.08;100.00
27984;BME280;15317;50.360;8.726;2023-04-28T23:32:23;99161.41;;;9.07;100.00
27984;BME280;15317;50.360;8.726;2023-04-28T23:37:26;99162.72;;;9.03;100.00
27984;BME280;15317;50.360;8.726;2023-04-28T23:42:30;99163.41;;;9.05;100.00
27984;BME280;15317;50.360;8.726;2023-04-28T23:47:35;99168.91;;;9.14;100.00
27984;BME280;15317;50.360;8.726;2023-04-28T23:52:38;99163.09;;;9.08;100.00
27984;BME280;15317;50.360;8.726;2023-04-28T23:57:41;99156.81;;;9.08;100.00
